Terminal Aerodrome Forecast
Issued by NWS Grand Junction, CO

Home | Current Version | Previous Version | Text Only | Print | Product List | Glossary On
Versions: 1 2 3 4 5 6 7 8 9 10 11 12 13 14 15
000
FTUS45 KGJT 231732
TAFGJT
TAF
KGJT 231732Z 2318/2418 VRB04KT P6SM FEW110 FEW200
     FM232000 30007KT P6SM SCT110 SCT200
     FM240200 13010KT P6SM FEW110 SCT250
     FM240600 11010KT P6SM FEW250
     FM241500 14008KT P6SM FEW250=

USA.gov is the U.S. government's official web portal to all federal, state and local government web resources and services.